Terminal Aerodrome Forecast
Issued by NWS Jackson, MS

Home | Current Version | Previous Version | Text Only | Print | Product List | Glossary On
Versions: 1 2 3 4 5 6 7 8 9 10 11 12 13 14 15 16 17
000
FTUS44 KJAN 222300
TAFMEI
TAF
KMEI 222330Z 2300/2324 16006KT 6SM BR OVC006
     FM230300 17008KT 3SM BR OVC003
     FM230500 19005KT 2SM BR OVC003
     FM230900 19004KT 1/2SM FG OVC001
     FM231100 19003KT 1/4SM FG OVC001
     FM231400 16003KT 1/2SM FG OVC003
     FM231500 15005KT 1 1/2SM BR VCSH OVC003
     FM231700 17009KT 4SM -TSRA BR OVC003CB
     FM231900 18010KT 4SM -TSRA SCT005 OVC015CB=

USA.gov is the U.S. government's official web portal to all federal, state and local government web resources and services.